Terminal Aerodrome Forecast
Issued by NWS

Home | Current Version | Previous Version | Text Only | Print | Product List | Glossary Off
Versions: 1 2 3 4 5 6 7 8 9 10 11 12 13

000
FTUS43 KIWX 290500
TAFSBN
TAF
KSBN 290527Z 2906/3006 00000KT P6SM SCT250
     FM291000 00000KT 3SM BR SKC
     FM291400 30004KT P6SM SKC
     FM300300 35007KT 6SM BR BKN020=

USA.gov is the U.S. government's official web portal to all federal, state and local government web resources and services.